Time;durP1;ratioP1;P1;durP2;ratioP2;P2;SDS_P1;SDS_P2;PMS_P1;PMS_P2;Temp;Humidity;BMP_temperature;BMP_pressure;BME280_temperature;BME280_humidity;BME280_pressure;Samples;Min_cycle;Max_cycle;Signal;HPM_P1;HPM_P2
2023/12/03 00:00:26;;;;;;;45.90;25.77;;;;;;;;;;5053895;28;20437;-77
2023/12/03 00:02:53;;;;;;;42.70;24.92;;;;;;;;;;5054083;28;20389;-77
2023/12/03 00:05:19;;;;;;;49.17;26.73;;;;;;;;;;5053801;28;20049;-77
2023/12/03 00:07:46;;;;;;;44.58;25.60;;;;;;;;;;5053738;28;20045;-77
2023/12/03 00:10:12;;;;;;;44.83;25.92;;;;;;;;;;5020794;28;20045;-77
2023/12/03 00:12:38;;;;;;;43.55;25.55;;;;;;;;;;5037136;28;20140;-77
2023/12/03 00:15:05;;;;;;;37.60;23.77;;;;;;;;;;5054464;28;20053;-77
2023/12/03 00:17:31;;;;;;;41.42;24.92;;;;;;;;;;5037171;28;20056;-77
2023/12/03 00:19:57;;;;;;;42.97;24.50;;;;;;;;;;5053121;28;20043;-77
2023/12/03 00:22:24;;;;;;;40.40;24.48;;;;;;;;;;5053452;28;20055;-77
2023/12/03 00:24:50;;;;;;;37.72;24.08;;;;;;;;;;5054263;28;20047;-77
2023/12/03 00:27:16;;;;;;;40.90;24.42;;;;;;;;;;5054194;28;20052;-77
2023/12/03 00:29:42;;;;;;;41.10;24.15;;;;;;;;;;5053316;28;20044;-77
2023/12/03 00:32:08;;;;;;;38.65;24.73;;;;;;;;;;5036407;28;20053;-78
2023/12/03 00:34:34;;;;;;;36.13;22.85;;;;;;;;;;5054034;28;20408;-77
2023/12/03 00:37:00;;;;;;;39.28;24.40;;;;;;;;;;5036921;28;20052;-77
2023/12/03 00:39:26;;;;;;;37.58;24.35;;;;;;;;;;5036276;28;20067;-76
2023/12/03 00:41:52;;;;;;;40.42;24.88;;;;;;;;;;5036565;28;20095;-77
2023/12/03 00:44:18;;;;;;;41.92;25.23;;;;;;;;;;5052841;28;20102;-77
2023/12/03 00:46:45;;;;;;;39.38;23.40;;;;;;;;;;5053087;28;20084;-77
2023/12/03 00:49:11;;;;;;;41.63;24.67;;;;;;;;;;5020887;28;20447;-77
2023/12/03 00:51:37;;;;;;;37.60;23.98;;;;;;;;;;5035871;28;20136;-77
2023/12/03 00:54:03;;;;;;;39.10;24.42;;;;;;;;;;5037243;28;20140;-77
2023/12/03 00:56:29;;;;;;;44.63;24.90;;;;;;;;;;5036393;28;20049;-77
2023/12/03 00:58:55;;;;;;;43.80;25.52;;;;;;;;;;5053892;28;20055;-77
2023/12/03 01:01:22;;;;;;;39.25;23.92;;;;;;;;;;5036277;28;20397;-77
2023/12/03 01:03:48;;;;;;;37.28;22.73;;;;;;;;;;5035916;28;20041;-77
2023/12/03 01:06:14;;;;;;;39.35;23.92;;;;;;;;;;5052456;28;20082;-77
2023/12/03 01:08:40;;;;;;;39.20;23.48;;;;;;;;;;5020629;28;20103;-77
2023/12/03 01:11:06;;;;;;;39.05;24.55;;;;;;;;;;5036215;28;20090;-77
2023/12/03 01:13:32;;;;;;;40.92;25.50;;;;;;;;;;5036083;28;20389;-77
2023/12/03 01:16:00;;;;;;;37.90;24.52;;;;;;;;;;5052687;28;20408;-77
2023/12/03 01:18:26;;;;;;;41.80;24.77;;;;;;;;;;5053562;28;20115;-77
2023/12/03 01:20:52;;;;;;;48.85;24.95;;;;;;;;;;5052531;28;20060;-77
2023/12/03 01:23:18;;;;;;;41.92;24.25;;;;;;;;;;5053270;28;20044;-77
2023/12/03 01:25:44;;;;;;;46.03;26.48;;;;;;;;;;5052493;28;20037;-77
2023/12/03 01:28:10;;;;;;;47.42;25.50;;;;;;;;;;5052494;28;20056;-77
2023/12/03 01:30:36;;;;;;;57.53;26.98;;;;;;;;;;5035857;28;20052;-78
2023/12/03 01:33:02;;;;;;;47.25;26.55;;;;;;;;;;5035864;28;20045;-77
2023/12/03 01:35:28;;;;;;;53.17;27.90;;;;;;;;;;5053484;28;20103;-77
2023/12/03 01:37:54;;;;;;;47.40;27.85;;;;;;;;;;5035794;28;20088;-77
2023/12/03 01:40:20;;;;;;;58.00;30.60;;;;;;;;;;5053212;28;20048;-77
2023/12/03 01:42:46;;;;;;;45.22;26.55;;;;;;;;;;5052311;28;20045;-77
2023/12/03 01:45:12;;;;;;;44.10;26.25;;;;;;;;;;5054761;28;20401;-77
2023/12/03 01:47:39;;;;;;;47.47;28.00;;;;;;;;;;5056453;28;20049;-77
2023/12/03 01:50:06;;;;;;;47.72;26.95;;;;;;;;;;5057607;28;20052;-77
2023/12/03 01:52:33;;;;;;;57.38;26.45;;;;;;;;;;5057224;28;20056;-77
2023/12/03 01:54:59;;;;;;;56.90;27.27;;;;;;;;;;5056288;28;20044;-77
2023/12/03 01:57:26;;;;;;;62.85;27.15;;;;;;;;;;5056270;28;20048;-77
2023/12/03 01:59:52;;;;;;;61.65;28.60;;;;;;;;;;5056956;28;20049;-77
2023/12/03 02:02:18;;;;;;;61.50;28.38;;;;;;;;;;5057630;28;20041;-77
2023/12/03 02:04:44;;;;;;;55.85;25.27;;;;;;;;;;5055899;28;20041;-77
2023/12/03 02:07:10;;;;;;;95.00;28.85;;;;;;;;;;5056008;28;20053;-77
2023/12/03 02:09:37;;;;;;;151.18;34.38;;;;;;;;;;5039781;28;20084;-77
2023/12/03 02:12:03;;;;;;;67.22;26.58;;;;;;;;;;5055983;28;20057;-77
2023/12/03 02:14:29;;;;;;;57.58;28.30;;;;;;;;;;5039340;28;20056;-77
2023/12/03 02:16:55;;;;;;;68.57;27.33;;;;;;;;;;5039155;28;20053;-78
2023/12/03 02:19:21;;;;;;;78.35;26.55;;;;;;;;;;5055737;28;20132;-78
2023/12/03 02:21:48;;;;;;;69.47;27.70;;;;;;;;;;5055756;28;20041;-77
2023/12/03 02:24:14;;;;;;;69.47;28.88;;;;;;;;;;5055134;28;20040;-78
2023/12/03 02:26:40;;;;;;;95.68;29.20;;;;;;;;;;5056706;28;20134;-77
2023/12/03 02:29:06;;;;;;;50.45;26.45;;;;;;;;;;5055387;28;20080;-77
2023/12/03 02:31:32;;;;;;;52.95;25.65;;;;;;;;;;5055585;28;20052;-77
2023/12/03 02:34:07;;;;;;;58.20;24.90;;;;;;;;;;5023403;28;20037;-77
2023/12/03 02:36:33;;;;;;;53.00;26.05;;;;;;;;;;5055290;28;20055;-77
2023/12/03 02:38:59;;;;;;;45.83;25.60;;;;;;;;;;5055490;28;20049;-77
2023/12/03 02:41:25;;;;;;;69.05;26.48;;;;;;;;;;5056452;28;20443;-77
2023/12/03 02:43:51;;;;;;;55.90;26.95;;;;;;;;;;5055209;28;20052;-77
2023/12/03 02:46:17;;;;;;;78.93;28.25;;;;;;;;;;5055367;28;20102;-77
2023/12/03 02:48:44;;;;;;;77.97;26.33;;;;;;;;;;5055494;28;20540;-77
2023/12/03 02:51:10;;;;;;;71.47;27.33;;;;;;;;;;5054754;28;20497;-77
2023/12/03 02:53:37;;;;;;;40.17;24.33;;;;;;;;;;5055509;28;20060;-77
2023/12/03 02:56:03;;;;;;;53.58;25.35;;;;;;;;;;5055065;28;20477;-77
2023/12/03 02:58:29;;;;;;;87.05;27.00;;;;;;;;;;5055150;28;20056;-77
2023/12/03 03:00:55;;;;;;;39.10;24.20;;;;;;;;;;5038577;28;20045;-77
2023/12/03 03:03:21;;;;;;;46.30;24.73;;;;;;;;;;5039238;28;20104;-80
2023/12/03 03:05:47;;;;;;;48.58;24.63;;;;;;;;;;5055721;28;20045;-77
2023/12/03 03:08:13;;;;;;;47.80;26.30;;;;;;;;;;5055566;28;20045;-78
2023/12/03 03:10:39;;;;;;;48.03;25.77;;;;;;;;;;5054872;28;20102;-77
2023/12/03 03:13:05;;;;;;;69.57;27.08;;;;;;;;;;5055799;28;20053;-77
2023/12/03 03:15:31;;;;;;;98.30;30.08;;;;;;;;;;5054785;28;20041;-77
2023/12/03 03:17:57;;;;;;;56.53;27.20;;;;;;;;;;5055781;28;20389;-77
2023/12/03 03:20:23;;;;;;;48.80;26.23;;;;;;;;;;5054643;28;20055;-78
2023/12/03 03:22:50;;;;;;;49.28;25.55;;;;;;;;;;5055490;28;20437;-77
2023/12/03 03:25:16;;;;;;;51.72;26.83;;;;;;;;;;5055435;28;20041;-77
2023/12/03 03:27:42;;;;;;;65.32;29.42;;;;;;;;;;5054802;28;20389;-78
2023/12/03 03:30:09;;;;;;;60.60;29.42;;;;;;;;;;5055388;28;20106;-77
2023/12/03 03:32:35;;;;;;;53.83;27.73;;;;;;;;;;5055501;28;20095;-77
2023/12/03 03:35:01;;;;;;;58.00;29.20;;;;;;;;;;5054401;28;20095;-77
2023/12/03 03:37:27;;;;;;;64.78;28.20;;;;;;;;;;5038774;28;20409;-77
2023/12/03 03:39:53;;;;;;;54.13;26.88;;;;;;;;;;5055151;28;20122;-77
2023/12/03 03:42:20;;;;;;;55.85;28.30;;;;;;;;;;5054596;28;20049;-77
2023/12/03 03:44:46;;;;;;;48.83;27.27;;;;;;;;;;5053710;28;20045;-77
2023/12/03 03:47:15;;;;;;;56.47;27.20;;;;;;;;;;5053900;28;20135;-77
2023/12/03 03:49:41;;;;;;;46.90;26.13;;;;;;;;;;5054092;28;20063;-77
2023/12/03 03:52:07;;;;;;;53.70;27.35;;;;;;;;;;5020465;28;20064;-77
2023/12/03 03:54:33;;;;;;;65.43;27.02;;;;;;;;;;5020781;28;20060;-78
2023/12/03 03:56:59;;;;;;;46.20;25.02;;;;;;;;;;5053677;28;20128;-78
2023/12/03 03:59:26;;;;;;;48.17;24.38;;;;;;;;;;5037473;28;20437;-77
2023/12/03 04:01:52;;;;;;;47.08;23.67;;;;;;;;;;5053877;28;20048;-78
2023/12/03 04:04:18;;;;;;;49.35;25.02;;;;;;;;;;5053656;28;20084;-77
2023/12/03 04:06:45;;;;;;;47.30;24.55;;;;;;;;;;5053255;28;20052;-77
2023/12/03 04:09:11;;;;;;;46.33;24.17;;;;;;;;;;5053668;28;20456;-77
2023/12/03 04:11:40;;;;;;;53.78;27.17;;;;;;;;;;5053659;28;20102;-77
2023/12/03 04:14:07;;;;;;;60.88;25.98;;;;;;;;;;5054512;28;20049;-77
2023/12/03 04:16:34;;;;;;;52.17;25.83;;;;;;;;;;5055109;28;20056;-77
2023/12/03 04:19:00;;;;;;;49.58;24.10;;;;;;;;;;5037242;28;20072;-77
2023/12/03 04:21:26;;;;;;;47.42;23.67;;;;;;;;;;5053455;28;20049;-77
2023/12/03 04:23:52;;;;;;;45.65;24.65;;;;;;;;;;5053284;28;20044;-78
2023/12/03 04:26:18;;;;;;;48.00;24.83;;;;;;;;;;5036831;28;20059;-77
2023/12/03 04:28:44;;;;;;;44.47;23.80;;;;;;;;;;5054201;28;20372;-77
2023/12/03 04:31:25;;;;;;;50.33;24.10;;;;;;;;;;5053373;28;20057;-77
2023/12/03 04:33:52;;;;;;;45.50;22.38;;;;;;;;;;5053418;28;20110;-77
2023/12/03 04:36:18;;;;;;;42.75;23.50;;;;;;;;;;5036796;28;20091;-77
2023/12/03 04:38:45;;;;;;;38.13;21.90;;;;;;;;;;5053260;28;20110;-77
2023/12/03 04:41:11;;;;;;;48.42;24.15;;;;;;;;;;5036541;28;20052;-78
2023/12/03 04:43:37;;;;;;;39.85;21.50;;;;;;;;;;5053569;28;20049;-77
2023/12/03 04:46:07;;;;;;;42.20;22.52;;;;;;;;;;5036749;28;20053;-77
2023/12/03 04:48:36;;;;;;;36.55;21.05;;;;;;;;;;5052806;28;20045;-78
2023/12/03 04:51:03;;;;;;;46.38;23.13;;;;;;;;;;5053675;28;20052;-77
2023/12/03 04:53:29;;;;;;;38.30;22.55;;;;;;;;;;5036496;28;20155;-77
2023/12/03 04:55:55;;;;;;;42.40;22.25;;;;;;;;;;5053782;28;20087;-77
2023/12/03 04:58:21;;;;;;;37.08;20.83;;;;;;;;;;5036263;28;20052;-77
2023/12/03 05:00:47;;;;;;;37.90;20.73;;;;;;;;;;5036334;28;20057;-77
2023/12/03 05:03:14;;;;;;;37.65;21.48;;;;;;;;;;5036216;28;20374;-77
2023/12/03 05:05:40;;;;;;;36.03;20.60;;;;;;;;;;5053771;28;20048;-77
2023/12/03 05:08:06;;;;;;;40.38;21.38;;;;;;;;;;5036424;28;20052;-77
2023/12/03 05:10:32;;;;;;;39.10;20.55;;;;;;;;;;5052732;28;20489;-77
2023/12/03 05:12:58;;;;;;;38.03;20.02;;;;;;;;;;5053687;28;20049;-77
2023/12/03 05:15:24;;;;;;;36.58;19.40;;;;;;;;;;5053414;28;20049;-77
2023/12/03 05:17:50;;;;;;;37.53;20.15;;;;;;;;;;5036060;28;20048;-78
2023/12/03 05:20:16;;;;;;;37.30;20.40;;;;;;;;;;5052771;28;20048;-77
2023/12/03 05:22:42;;;;;;;35.55;20.98;;;;;;;;;;5035952;28;20056;-78
2023/12/03 05:25:10;;;;;;;37.22;21.27;;;;;;;;;;5035719;28;20041;-77
2023/12/03 05:27:37;;;;;;;38.20;21.42;;;;;;;;;;5052774;28;20094;-77
2023/12/03 05:30:04;;;;;;;43.33;22.25;;;;;;;;;;5036163;28;20258;-77
2023/12/03 05:32:30;;;;;;;43.20;23.10;;;;;;;;;;5035721;28;20095;-77
2023/12/03 05:34:56;;;;;;;54.22;24.67;;;;;;;;;;5052740;28;20102;-77
2023/12/03 05:37:22;;;;;;;43.25;21.98;;;;;;;;;;5052479;28;20523;-78
2023/12/03 05:39:48;;;;;;;44.55;23.65;;;;;;;;;;5035832;28;20087;-78
2023/12/03 05:42:14;;;;;;;48.00;22.98;;;;;;;;;;5053190;28;20044;-77
2023/12/03 05:44:40;;;;;;;42.53;21.42;;;;;;;;;;5035557;28;20052;-77
2023/12/03 05:47:06;;;;;;;44.10;22.70;;;;;;;;;;5052352;28;20081;-77
2023/12/03 05:49:32;;;;;;;40.42;20.88;;;;;;;;;;5052287;28;20045;-77
2023/12/03 05:51:58;;;;;;;43.10;21.27;;;;;;;;;;5035623;28;20063;-77
2023/12/03 05:54:24;;;;;;;40.50;20.90;;;;;;;;;;5052355;28;20443;-77
2023/12/03 05:56:50;;;;;;;39.25;20.20;;;;;;;;;;5035850;28;20057;-78
2023/12/03 05:59:16;;;;;;;40.55;20.67;;;;;;;;;;5035748;28;20041;-78
2023/12/03 06:01:42;;;;;;;39.63;20.98;;;;;;;;;;5035751;28;20107;-77
2023/12/03 06:04:09;;;;;;;44.08;21.08;;;;;;;;;;5052282;28;20056;-77
2023/12/03 06:06:35;;;;;;;42.72;20.98;;;;;;;;;;5035664;28;20080;-77
2023/12/03 06:09:02;;;;;;;41.67;21.60;;;;;;;;;;5052197;28;20366;-77
2023/12/03 06:11:28;;;;;;;45.05;22.27;;;;;;;;;;5035561;28;20135;-77
2023/12/03 06:13:57;;;;;;;49.05;24.48;;;;;;;;;;5052347;28;20053;-77
2023/12/03 06:16:23;;;;;;;43.53;22.80;;;;;;;;;;5052044;28;20049;-78
2023/12/03 06:18:50;;;;;;;43.45;22.30;;;;;;;;;;5036260;28;20083;-77
2023/12/03 06:21:16;;;;;;;41.78;21.52;;;;;;;;;;5051664;28;20045;-77
2023/12/03 06:23:42;;;;;;;44.10;22.77;;;;;;;;;;5051851;28;20489;-78
2023/12/03 06:26:08;;;;;;;43.70;21.00;;;;;;;;;;5052383;28;20049;-78
2023/12/03 06:28:34;;;;;;;38.83;22.38;;;;;;;;;;5051774;28;20142;-78
2023/12/03 06:31:01;;;;;;;44.60;22.30;;;;;;;;;;5053384;28;20115;-78
2023/12/03 06:33:27;;;;;;;42.28;20.65;;;;;;;;;;5038619;28;20499;-78
2023/12/03 06:35:56;;;;;;;39.65;21.30;;;;;;;;;;5038785;28;20049;-78
2023/12/03 06:38:23;;;;;;;42.47;21.48;;;;;;;;;;5055310;28;20048;-78
2023/12/03 06:40:49;;;;;;;40.97;21.45;;;;;;;;;;5055434;28;20041;-77
2023/12/03 06:43:15;;;;;;;48.85;22.25;;;;;;;;;;5055057;28;20494;-77
2023/12/03 06:45:41;;;;;;;49.55;23.00;;;;;;;;;;5055318;28;20048;-77
2023/12/03 06:48:07;;;;;;;44.05;21.80;;;;;;;;;;5054991;28;20076;-77
2023/12/03 06:50:34;;;;;;;47.92;21.80;;;;;;;;;;5038280;28;20103;-77
2023/12/03 06:53:03;;;;;;;47.00;23.75;;;;;;;;;;5055128;28;20060;-77
2023/12/03 06:55:29;;;;;;;48.50;22.98;;;;;;;;;;5055180;28;20465;-77
2023/12/03 06:57:55;;;;;;;47.95;22.35;;;;;;;;;;5055119;28;20397;-78
2023/12/03 07:00:24;;;;;;;45.75;22.42;;;;;;;;;;5038676;28;20135;-78
2023/12/03 07:02:51;;;;;;;48.08;23.27;;;;;;;;;;5054939;28;20037;-77
2023/12/03 07:05:18;;;;;;;46.95;22.52;;;;;;;;;;5054309;28;20087;-77
2023/12/03 07:07:48;;;;;;;50.25;24.30;;;;;;;;;;5054564;28;20041;-77
2023/12/03 07:10:15;;;;;;;46.28;23.50;;;;;;;;;;5055693;28;20059;-77
2023/12/03 07:12:41;;;;;;;50.65;24.50;;;;;;;;;;5055072;28;20044;-77
2023/12/03 07:15:07;;;;;;;51.65;25.38;;;;;;;;;;5054764;28;20049;-77
2023/12/03 07:17:33;;;;;;;48.58;23.05;;;;;;;;;;5055533;28;20056;-77
2023/12/03 07:19:59;;;;;;;55.92;25.20;;;;;;;;;;5038926;28;20045;-77
2023/12/03 07:22:26;;;;;;;54.53;25.63;;;;;;;;;;5038032;28;20055;-77
2023/12/03 07:24:52;;;;;;;57.33;25.80;;;;;;;;;;5037961;28;20048;-77
2023/12/03 07:27:18;;;;;;;54.67;26.42;;;;;;;;;;5054610;28;20044;-77
2023/12/03 07:29:45;;;;;;;59.17;25.20;;;;;;;;;;5037996;28;20049;-77
2023/12/03 07:32:11;;;;;;;48.83;24.50;;;;;;;;;;5054495;28;20106;-77
2023/12/03 07:34:37;;;;;;;48.17;24.55;;;;;;;;;;5038779;28;20056;-78
2023/12/03 07:37:03;;;;;;;56.50;25.88;;;;;;;;;;5054369;28;20049;-78
2023/12/03 07:39:29;;;;;;;50.67;23.90;;;;;;;;;;5037796;28;20092;-77
2023/12/03 07:41:55;;;;;;;54.55;25.50;;;;;;;;;;5052949;28;20048;-77
2023/12/03 07:44:22;;;;;;;60.60;25.38;;;;;;;;;;5054038;28;20045;-77
2023/12/03 07:46:48;;;;;;;53.03;25.15;;;;;;;;;;5053932;28;20489;-77
2023/12/03 07:49:14;;;;;;;52.15;25.15;;;;;;;;;;5054137;28;20118;-78
2023/12/03 07:51:41;;;;;;;53.97;26.02;;;;;;;;;;5037065;28;20049;-78
2023/12/03 07:54:07;;;;;;;50.42;25.25;;;;;;;;;;5038364;28;20052;-77
2023/12/03 07:56:36;;;;;;;49.95;25.95;;;;;;;;;;5054828;28;20048;-77
2023/12/03 07:59:02;;;;;;;53.35;27.80;;;;;;;;;;5037348;28;20041;-78
2023/12/03 08:01:28;;;;;;;50.28;27.20;;;;;;;;;;5037230;28;20135;-78
2023/12/03 08:03:54;;;;;;;56.35;27.50;;;;;;;;;;5037204;28;20044;-78
2023/12/03 08:06:20;;;;;;;55.20;29.02;;;;;;;;;;5037284;28;20396;-78
2023/12/03 08:08:46;;;;;;;57.53;27.27;;;;;;;;;;5037530;28;20053;-78
2023/12/03 08:11:13;;;;;;;52.72;26.73;;;;;;;;;;5054524;28;20397;-77
2023/12/03 08:13:39;;;;;;;50.72;25.38;;;;;;;;;;5054626;28;20083;-78
2023/12/03 08:16:05;;;;;;;51.22;26.05;;;;;;;;;;5053607;28;20057;-78
2023/12/03 08:18:32;;;;;;;54.78;27.63;;;;;;;;;;5053517;28;20047;-80
2023/12/03 08:20:59;;;;;;;54.38;27.30;;;;;;;;;;5036930;28;20052;-77
2023/12/03 08:23:26;;;;;;;58.35;27.92;;;;;;;;;;5053260;28;20055;-77
2023/12/03 08:25:52;;;;;;;50.70;27.25;;;;;;;;;;5036918;28;20068;-78
2023/12/03 08:28:18;;;;;;;60.55;27.88;;;;;;;;;;5053765;28;20369;-77
2023/12/03 08:30:44;;;;;;;56.80;26.88;;;;;;;;;;5054270;28;20076;-78
2023/12/03 08:33:10;;;;;;;56.80;29.00;;;;;;;;;;5054123;28;20049;-78
2023/12/03 08:35:36;;;;;;;62.22;32.28;;;;;;;;;;5036723;28;20053;-77
2023/12/03 08:38:02;;;;;;;60.80;31.65;;;;;;;;;;5054175;28;20080;-78
2023/12/03 08:40:28;;;;;;;59.92;30.48;;;;;;;;;;5053201;28;20045;-78
2023/12/03 08:42:54;;;;;;;56.60;30.73;;;;;;;;;;5053189;28;20389;-78
2023/12/03 08:45:21;;;;;;;59.85;30.52;;;;;;;;;;5036222;28;20215;-78
2023/12/03 08:47:47;;;;;;;50.75;28.75;;;;;;;;;;5053073;28;20041;-78
2023/12/03 08:50:13;;;;;;;58.38;30.30;;;;;;;;;;5052835;28;21043;-78
2023/12/03 08:52:39;;;;;;;55.83;30.05;;;;;;;;;;5053018;28;20095;-78
2023/12/03 08:55:06;;;;;;;61.95;32.28;;;;;;;;;;5036364;28;20045;-78
2023/12/03 08:57:32;;;;;;;59.30;32.25;;;;;;;;;;5053323;28;20477;-78
2023/12/03 08:59:58;;;;;;;54.83;31.50;;;;;;;;;;5052828;28;20049;-78
2023/12/03 09:02:24;;;;;;;54.40;33.03;;;;;;;;;;5052667;28;20552;-77
2023/12/03 09:04:51;;;;;;;53.08;33.58;;;;;;;;;;5019755;28;20087;-77
2023/12/03 09:07:17;;;;;;;52.22;30.92;;;;;;;;;;5036123;28;20045;-77
2023/12/03 09:09:43;;;;;;;49.92;33.50;;;;;;;;;;5052824;28;20102;-78
2023/12/03 09:12:10;;;;;;;52.67;31.85;;;;;;;;;;5052811;28;20044;-77
2023/12/03 09:14:36;;;;;;;48.72;32.13;;;;;;;;;;5053715;28;20095;-78
2023/12/03 09:17:03;;;;;;;45.30;30.63;;;;;;;;;;5053532;28;20052;-77
2023/12/03 09:19:30;;;;;;;49.58;31.95;;;;;;;;;;5052590;28;20080;-77
2023/12/03 09:21:56;;;;;;;46.67;32.08;;;;;;;;;;5036015;28;20477;-78
2023/12/03 09:24:23;;;;;;;47.38;32.05;;;;;;;;;;5053255;28;20049;-78
2023/12/03 09:26:49;;;;;;;47.53;31.95;;;;;;;;;;5053437;28;20056;-78
2023/12/03 09:29:15;;;;;;;45.58;31.77;;;;;;;;;;5036817;28;20056;-78
2023/12/03 09:31:41;;;;;;;44.00;32.28;;;;;;;;;;5052551;28;20158;-78
2023/12/03 09:34:08;;;;;;;46.90;31.15;;;;;;;;;;5052167;28;20045;-78
2023/12/03 09:36:34;;;;;;;45.97;32.55;;;;;;;;;;5036742;28;20134;-78
2023/12/03 09:39:00;;;;;;;43.60;28.80;;;;;;;;;;5052422;28;20416;-78
2023/12/03 09:41:29;;;;;;;37.97;26.45;;;;;;;;;;5052785;28;20055;-78
2023/12/03 09:43:59;;;;;;;36.97;25.75;;;;;;;;;;5035694;28;20124;-77
2023/12/03 09:46:30;;;;;;;34.80;26.02;;;;;;;;;;5052494;28;20045;-77
2023/12/03 09:49:00;;;;;;;36.08;26.73;;;;;;;;;;5052714;28;20131;-78
2023/12/03 09:51:27;;;;;;;39.55;28.33;;;;;;;;;;5051949;28;20056;-78
2023/12/03 09:53:56;;;;;;;40.85;29.67;;;;;;;;;;5053131;28;20064;-78
2023/12/03 09:56:24;;;;;;;38.80;26.65;;;;;;;;;;5053046;28;20045;-78
2023/12/03 09:58:50;;;;;;;39.60;28.70;;;;;;;;;;5053026;28;20049;-78
2023/12/03 10:01:17;;;;;;;38.70;28.08;;;;;;;;;;5052272;28;20053;-77
2023/12/03 10:03:43;;;;;;;35.80;25.08;;;;;;;;;;5035773;28;20052;-78
2023/12/03 10:06:10;;;;;;;38.33;27.70;;;;;;;;;;5054962;28;20094;-78
2023/12/03 10:08:37;;;;;;;40.17;28.23;;;;;;;;;;5039240;28;20501;-78
2023/12/03 10:11:06;;;;;;;36.60;26.75;;;;;;;;;;5023425;28;20053;-77
2023/12/03 10:13:34;;;;;;;33.92;26.30;;;;;;;;;;5055760;28;20060;-78
2023/12/03 10:16:00;;;;;;;34.35;23.23;;;;;;;;;;5056056;28;20142;-77
2023/12/03 10:18:27;;;;;;;32.10;23.40;;;;;;;;;;5056026;28;20060;-78
2023/12/03 10:21:06;;;;;;;35.00;24.90;;;;;;;;;;5055849;28;20044;-78
2023/12/03 10:23:32;;;;;;;31.48;23.55;;;;;;;;;;5056685;28;20049;-77
2023/12/03 10:26:09;;;;;;;34.30;23.50;;;;;;;;;;5055873;28;20132;-78
2023/12/03 10:28:35;;;;;;;33.70;24.70;;;;;;;;;;5056740;28;20143;-77
2023/12/03 10:31:02;;;;;;;32.47;24.15;;;;;;;;;;5056574;28;20076;-77
2023/12/03 10:33:28;;;;;;;33.45;23.55;;;;;;;;;;5056468;28;20060;-77
2023/12/03 10:36:01;;;;;;;35.80;25.75;;;;;;;;;;5055560;28;20107;-78
2023/12/03 10:38:27;;;;;;;32.42;23.83;;;;;;;;;;5056496;28;20095;-77
2023/12/03 10:40:53;;;;;;;33.70;23.45;;;;;;;;;;5055807;28;20049;-77
2023/12/03 10:43:22;;;;;;;34.28;25.17;;;;;;;;;;5055478;28;20511;-77
2023/12/03 10:45:53;;;;;;;36.67;24.25;;;;;;;;;;5055502;28;20369;-77
2023/12/03 10:48:19;;;;;;;32.80;22.92;;;;;;;;;;5055521;28;20056;-77
2023/12/03 10:50:46;;;;;;;32.15;23.52;;;;;;;;;;5055144;28;20135;-77
2023/12/03 10:53:15;;;;;;;33.60;24.13;;;;;;;;;;5056149;28;20059;-77
2023/12/03 10:55:43;;;;;;;35.88;27.30;;;;;;;;;;5055253;28;20094;-78
2023/12/03 10:58:10;;;;;;;30.45;19.42;;;;;;;;;;5055274;28;20397;-77
2023/12/03 11:00:40;;;;;;;37.17;25.60;;;;;;;;;;5054901;28;20477;-77
2023/12/03 11:03:06;;;;;;;33.90;22.27;;;;;;;;;;5039415;28;20056;-77
2023/12/03 11:05:38;;;;;;;35.10;24.48;;;;;;;;;;5054486;28;20128;-78
2023/12/03 11:08:05;;;;;;;35.38;23.85;;;;;;;;;;5055328;28;20611;-77
2023/12/03 11:10:31;;;;;;;37.78;25.73;;;;;;;;;;5038347;28;20084;-77
2023/12/03 11:13:00;;;;;;;35.95;25.33;;;;;;;;;;5038667;28;20045;-77
2023/12/03 11:15:26;;;;;;;40.58;27.73;;;;;;;;;;5055182;28;20056;-78
2023/12/03 11:17:52;;;;;;;37.90;24.80;;;;;;;;;;5038092;28;20041;-77
2023/12/03 11:20:21;;;;;;;39.15;26.42;;;;;;;;;;5055034;28;20096;-78
2023/12/03 11:22:53;;;;;;;37.10;25.08;;;;;;;;;;5054804;28;20080;-77
2023/12/03 11:25:32;;;;;;;40.95;26.33;;;;;;;;;;5054376;28;20132;-77
2023/12/03 11:27:58;;;;;;;40.50;29.33;;;;;;;;;;5054983;28;20053;-78
2023/12/03 11:30:44;;;;;;;42.03;28.35;;;;;;;;;;5056173;28;20056;-78
2023/12/03 11:33:11;;;;;;;45.10;28.20;;;;;;;;;;5055230;28;20405;-77
2023/12/03 11:35:39;;;;;;;45.63;30.27;;;;;;;;;;5054251;28;20524;-77
2023/12/03 11:38:08;;;;;;;43.55;29.70;;;;;;;;;;5055303;28;20137;-77
2023/12/03 11:40:34;;;;;;;48.58;30.80;;;;;;;;;;5054387;28;20098;-77
2023/12/03 11:43:01;;;;;;;46.33;31.42;;;;;;;;;;5054350;28;20099;-77
2023/12/03 11:45:29;;;;;;;48.58;30.15;;;;;;;;;;5054019;28;20076;-77
2023/12/03 11:48:09;;;;;;;46.15;27.50;;;;;;;;;;5053962;28;20505;-77
2023/12/03 11:50:37;;;;;;;47.60;29.55;;;;;;;;;;5037508;28;20056;-77
2023/12/03 11:53:04;;;;;;;45.65;29.45;;;;;;;;;;5054133;28;20053;-77
2023/12/03 11:55:33;;;;;;;41.83;25.52;;;;;;;;;;5055207;28;20045;-77
2023/12/03 11:57:59;;;;;;;43.95;28.42;;;;;;;;;;5053772;28;20063;-77
2023/12/03 12:00:25;;;;;;;42.28;27.73;;;;;;;;;;5054087;28;20114;-77
2023/12/03 12:02:51;;;;;;;41.70;25.98;;;;;;;;;;5054012;28;20045;-77
2023/12/03 12:05:18;;;;;;;40.85;27.55;;;;;;;;;;5053605;28;20043;-77
2023/12/03 12:07:55;;;;;;;41.42;26.50;;;;;;;;;;5054187;28;20373;-77
2023/12/03 12:10:21;;;;;;;46.08;27.73;;;;;;;;;;5054852;28;20106;-77
2023/12/03 12:12:47;;;;;;;42.53;26.73;;;;;;;;;;5053840;28;20097;-77
2023/12/03 12:15:13;;;;;;;35.58;23.42;;;;;;;;;;5054032;28;20107;-77
2023/12/03 12:17:41;;;;;;;33.80;22.33;;;;;;;;;;5053627;28;20052;-77
2023/12/03 12:20:08;;;;;;;36.03;24.00;;;;;;;;;;5053211;28;20041;-77
2023/12/03 12:22:34;;;;;;;38.17;23.63;;;;;;;;;;5037148;28;20388;-76
2023/12/03 12:25:01;;;;;;;35.60;23.48;;;;;;;;;;5054502;28;20198;-77
2023/12/03 12:27:28;;;;;;;30.25;19.67;;;;;;;;;;5036814;28;20057;-77
2023/12/03 12:29:55;;;;;;;32.17;20.75;;;;;;;;;;5053426;28;20057;-77
2023/12/03 12:32:21;;;;;;;30.70;20.05;;;;;;;;;;5037098;28;20052;-77
2023/12/03 12:34:47;;;;;;;32.33;21.48;;;;;;;;;;5053434;28;20075;-77
2023/12/03 12:37:13;;;;;;;29.48;20.52;;;;;;;;;;5053399;28;20049;-77
2023/12/03 12:39:39;;;;;;;28.63;20.20;;;;;;;;;;5053402;28;20052;-77
2023/12/03 12:42:05;;;;;;;29.30;20.85;;;;;;;;;;5053277;28;20095;-77
2023/12/03 12:44:38;;;;;;;28.65;18.58;;;;;;;;;;5052999;28;20041;-77
2023/12/03 12:47:04;;;;;;;27.45;18.08;;;;;;;;;;5053189;28;20172;-77
2023/12/03 12:49:30;;;;;;;26.90;19.40;;;;;;;;;;5053074;28;20055;-77
2023/12/03 12:52:12;;;;;;;28.75;19.33;;;;;;;;;;5036206;28;20053;-77
2023/12/03 12:54:45;;;;;;;30.00;18.33;;;;;;;;;;5052850;28;20091;-77
2023/12/03 12:57:12;;;;;;;27.25;19.05;;;;;;;;;;5053056;28;20045;-77
2023/12/03 12:59:38;;;;;;;27.08;18.52;;;;;;;;;;5052962;28;20075;-77
2023/12/03 13:02:05;;;;;;;25.77;17.85;;;;;;;;;;5053732;28;20430;-77
2023/12/03 13:04:31;;;;;;;23.98;17.90;;;;;;;;;;5053870;28;20040;-77
2023/12/03 13:06:57;;;;;;;25.85;18.10;;;;;;;;;;5036266;28;20045;-77
2023/12/03 13:09:23;;;;;;;26.40;18.40;;;;;;;;;;5037076;28;20057;-77
2023/12/03 13:11:49;;;;;;;27.60;19.23;;;;;;;;;;5036315;28;20052;-77
2023/12/03 13:14:15;;;;;;;28.75;18.75;;;;;;;;;;5052778;28;20202;-77
2023/12/03 13:16:41;;;;;;;27.55;18.65;;;;;;;;;;5052736;28;20056;-77
2023/12/03 13:19:07;;;;;;;27.77;19.25;;;;;;;;;;5053448;28;20045;-77
2023/12/03 13:21:33;;;;;;;26.05;17.55;;;;;;;;;;5037058;28;20049;-77
2023/12/03 13:23:59;;;;;;;25.88;17.83;;;;;;;;;;5053404;28;20049;-77
2023/12/03 13:26:25;;;;;;;29.13;18.00;;;;;;;;;;5036441;28;20088;-77
2023/12/03 13:28:52;;;;;;;26.27;18.30;;;;;;;;;;5052854;28;20489;-77
2023/12/03 13:31:18;;;;;;;24.38;17.27;;;;;;;;;;5036731;28;20103;-77
2023/12/03 13:33:44;;;;;;;25.70;18.00;;;;;;;;;;5052759;28;20067;-77
2023/12/03 13:36:10;;;;;;;28.05;17.70;;;;;;;;;;5052231;28;20102;-77
2023/12/03 13:38:36;;;;;;;27.05;18.27;;;;;;;;;;5052238;28;20051;-77
2023/12/03 13:41:03;;;;;;;24.80;17.52;;;;;;;;;;5038175;28;20492;-77
2023/12/03 13:43:29;;;;;;;28.15;17.52;;;;;;;;;;5056602;28;20053;-77
2023/12/03 13:45:55;;;;;;;27.63;18.38;;;;;;;;;;5039983;28;20049;-77
2023/12/03 13:48:21;;;;;;;26.65;17.70;;;;;;;;;;5023908;28;20099;-77
2023/12/03 13:50:47;;;;;;;30.15;18.48;;;;;;;;;;5056017;28;20141;-77
2023/12/03 13:53:14;;;;;;;28.42;17.73;;;;;;;;;;5056163;28;20057;-77
2023/12/03 13:55:41;;;;;;;28.67;19.67;;;;;;;;;;5056298;28;20131;-77
2023/12/03 13:58:07;;;;;;;29.20;20.50;;;;;;;;;;5057957;28;20057;-77
2023/12/03 14:00:33;;;;;;;29.63;19.98;;;;;;;;;;5056375;28;20052;-77
2023/12/03 14:02:59;;;;;;;29.30;19.02;;;;;;;;;;5057128;28;20373;-76
2023/12/03 14:05:25;;;;;;;27.02;18.05;;;;;;;;;;5055692;28;20037;-77
2023/12/03 14:07:55;;;;;;;32.13;21.35;;;;;;;;;;5056494;28;20037;-77
2023/12/03 14:10:24;;;;;;;30.05;19.92;;;;;;;;;;5057033;28;20416;-77
2023/12/03 14:12:51;;;;;;;27.60;18.25;;;;;;;;;;5056154;28;20500;-78